sensor_id;sensor_type;location;lat;lon;timestamp;P1;durP1;ratioP1;P2;durP2;ratioP2
51692;SDS011;37777;53.066;21.638;2022-09-03T00:00:07;2.65;;;2.40;;
51692;SDS011;37777;53.066;21.638;2022-09-03T00:07:16;5.15;;;2.50;;
51692;SDS011;37777;53.066;21.638;2022-09-03T00:14:45;8.00;;;2.75;;
51692;SDS011;37777;53.066;21.638;2022-09-03T00:21:52;3.03;;;2.60;;
51692;SDS011;37777;53.066;21.638;2022-09-03T00:29:02;3.88;;;2.47;;
51692;SDS011;37777;53.066;21.638;2022-09-03T00:36:13;3.63;;;2.53;;
51692;SDS011;37777;53.066;21.638;2022-09-03T01:13:14;3.72;;;2.40;;
51692;SDS011;37777;53.066;21.638;2022-09-03T01:28:10;4.25;;;2.50;;
51692;SDS011;37777;53.066;21.638;2022-09-03T01:35:43;5.35;;;2.95;;
51692;SDS011;37777;53.066;21.638;2022-09-03T01:50:06;4.60;;;2.78;;
51692;SDS011;37777;53.066;21.638;2022-09-03T02:04:37;5.00;;;3.10;;
51692;SDS011;37777;53.066;21.638;2022-09-03T02:11:39;3.33;;;2.90;;
51692;SDS011;37777;53.066;21.638;2022-09-03T02:18:43;5.05;;;3.25;;
51692;SDS011;37777;53.066;21.638;2022-09-03T02:25:47;4.70;;;3.78;;
51692;SDS011;37777;53.066;21.638;2022-09-03T02:32:52;4.88;;;3.22;;
51692;SDS011;37777;53.066;21.638;2022-09-03T02:39:54;3.35;;;2.72;;
51692;SDS011;37777;53.066;21.638;2022-09-03T02:46:57;5.22;;;3.05;;
51692;SDS011;37777;53.066;21.638;2022-09-03T02:54:01;4.95;;;3.30;;
51692;SDS011;37777;53.066;21.638;2022-09-03T03:01:03;4.93;;;3.00;;
51692;SDS011;37777;53.066;21.638;2022-09-03T03:08:06;3.75;;;3.10;;
51692;SDS011;37777;53.066;21.638;2022-09-03T03:15:09;3.67;;;3.10;;
51692;SDS011;37777;53.066;21.638;2022-09-03T03:22:11;3.15;;;2.92;;
51692;SDS011;37777;53.066;21.638;2022-09-03T03:29:14;3.03;;;2.80;;
51692;SDS011;37777;53.066;21.638;2022-09-03T03:36:18;5.63;;;3.00;;
51692;SDS011;37777;53.066;21.638;2022-09-03T03:43:21;5.25;;;3.13;;
51692;SDS011;37777;53.066;21.638;2022-09-03T03:50:22;3.05;;;2.75;;
51692;SDS011;37777;53.066;21.638;2022-09-03T03:57:25;3.30;;;3.00;;
51692;SDS011;37777;53.066;21.638;2022-09-03T04:04:30;4.72;;;3.17;;
51692;SDS011;37777;53.066;21.638;2022-09-03T04:11:32;3.03;;;2.70;;
51692;SDS011;37777;53.066;21.638;2022-09-03T04:18:34;3.80;;;2.80;;
51692;SDS011;37777;53.066;21.638;2022-09-03T04:25:36;3.30;;;2.83;;
51692;SDS011;37777;53.066;21.638;2022-09-03T04:32:39;5.35;;;3.00;;
51692;SDS011;37777;53.066;21.638;2022-09-03T04:39:56;3.75;;;3.40;;
51692;SDS011;37777;53.066;21.638;2022-09-03T04:46:59;4.15;;;3.70;;
51692;SDS011;37777;53.066;21.638;2022-09-03T04:54:01;6.63;;;4.05;;
51692;SDS011;37777;53.066;21.638;2022-09-03T05:01:07;5.38;;;3.70;;
51692;SDS011;37777;53.066;21.638;2022-09-03T05:08:10;4.80;;;3.83;;
51692;SDS011;37777;53.066;21.638;2022-09-03T05:15:12;4.63;;;3.67;;
51692;SDS011;37777;53.066;21.638;2022-09-03T05:22:14;4.85;;;3.33;;
51692;SDS011;37777;53.066;21.638;2022-09-03T05:29:21;4.10;;;3.70;;
51692;SDS011;37777;53.066;21.638;2022-09-03T05:36:25;4.43;;;3.70;;
51692;SDS011;37777;53.066;21.638;2022-09-03T05:43:29;4.13;;;3.70;;
51692;SDS011;37777;53.066;21.638;2022-09-03T05:50:32;5.30;;;3.70;;
51692;SDS011;37777;53.066;21.638;2022-09-03T05:57:34;6.30;;;3.83;;
51692;SDS011;37777;53.066;21.638;2022-09-03T06:04:37;7.13;;;3.70;;
51692;SDS011;37777;53.066;21.638;2022-09-03T06:11:39;4.70;;;3.65;;
51692;SDS011;37777;53.066;21.638;2022-09-03T06:18:43;3.78;;;3.40;;
51692;SDS011;37777;53.066;21.638;2022-09-03T06:25:45;5.22;;;3.95;;
51692;SDS011;37777;53.066;21.638;2022-09-03T06:32:47;4.88;;;3.60;;
51692;SDS011;37777;53.066;21.638;2022-09-03T06:39:52;4.43;;;3.42;;
51692;SDS011;37777;53.066;21.638;2022-09-03T06:46:57;4.68;;;3.05;;
51692;SDS011;37777;53.066;21.638;2022-09-03T06:54:03;3.45;;;2.90;;
51692;SDS011;37777;53.066;21.638;2022-09-03T07:01:08;3.58;;;2.95;;
51692;SDS011;37777;53.066;21.638;2022-09-03T07:08:13;3.65;;;3.03;;
51692;SDS011;37777;53.066;21.638;2022-09-03T07:15:17;4.63;;;2.80;;
51692;SDS011;37777;53.066;21.638;2022-09-03T07:22:20;3.40;;;2.65;;
51692;SDS011;37777;53.066;21.638;2022-09-03T07:29:31;4.35;;;2.65;;
51692;SDS011;37777;53.066;21.638;2022-09-03T07:36:34;2.95;;;2.55;;
51692;SDS011;37777;53.066;21.638;2022-09-03T07:43:42;2.90;;;2.60;;
51692;SDS011;37777;53.066;21.638;2022-09-03T07:50:49;4.78;;;3.05;;
51692;SDS011;37777;53.066;21.638;2022-09-03T07:57:57;4.88;;;2.70;;
51692;SDS011;37777;53.066;21.638;2022-09-03T08:05:04;8.95;;;3.13;;
51692;SDS011;37777;53.066;21.638;2022-09-03T08:12:09;4.00;;;2.75;;
51692;SDS011;37777;53.066;21.638;2022-09-03T08:19:19;3.17;;;2.83;;
51692;SDS011;37777;53.066;21.638;2022-09-03T08:26:25;6.15;;;2.67;;
51692;SDS011;37777;53.066;21.638;2022-09-03T08:33:31;5.53;;;3.05;;
51692;SDS011;37777;53.066;21.638;2022-09-03T08:40:45;3.45;;;2.70;;
51692;SDS011;37777;53.066;21.638;2022-09-03T08:55:20;3.47;;;2.40;;
51692;SDS011;37777;53.066;21.638;2022-09-03T09:02:40;2.30;;;2.10;;
51692;SDS011;37777;53.066;21.638;2022-09-03T09:24:57;4.65;;;2.25;;
51692;SDS011;37777;53.066;21.638;2022-09-03T09:32:02;5.22;;;2.13;;
51692;SDS011;37777;53.066;21.638;2022-09-03T09:39:09;3.92;;;2.00;;
51692;SDS011;37777;53.066;21.638;2022-09-03T09:46:19;2.88;;;1.80;;
51692;SDS011;37777;53.066;21.638;2022-09-03T09:53:25;5.65;;;2.17;;
51692;SDS011;37777;53.066;21.638;2022-09-03T10:00:32;2.75;;;1.90;;
51692;SDS011;37777;53.066;21.638;2022-09-03T10:07:40;3.25;;;1.83;;
51692;SDS011;37777;53.066;21.638;2022-09-03T10:14:46;3.03;;;1.77;;
51692;SDS011;37777;53.066;21.638;2022-09-03T10:22:10;1.73;;;1.63;;
51692;SDS011;37777;53.066;21.638;2022-09-03T10:29:33;2.13;;;1.70;;
51692;SDS011;37777;53.066;21.638;2022-09-03T10:52:26;2.05;;;1.48;;
51692;SDS011;37777;53.066;21.638;2022-09-03T11:07:27;2.63;;;1.60;;
51692;SDS011;37777;53.066;21.638;2022-09-03T11:14:38;3.00;;;1.63;;
51692;SDS011;37777;53.066;21.638;2022-09-03T11:21:48;1.48;;;1.38;;
51692;SDS011;37777;53.066;21.638;2022-09-03T11:36:04;2.97;;;1.60;;
51692;SDS011;37777;53.066;21.638;2022-09-03T11:43:24;3.40;;;1.40;;
51692;SDS011;37777;53.066;21.638;2022-09-03T11:50:38;1.33;;;1.20;;
51692;SDS011;37777;53.066;21.638;2022-09-03T11:57:45;2.50;;;1.67;;
51692;SDS011;37777;53.066;21.638;2022-09-03T12:05:00;6.53;;;1.40;;
51692;SDS011;37777;53.066;21.638;2022-09-03T12:19:51;3.60;;;1.70;;
51692;SDS011;37777;53.066;21.638;2022-09-03T12:27:04;4.25;;;1.83;;
51692;SDS011;37777;53.066;21.638;2022-09-03T12:34:23;4.95;;;1.40;;
51692;SDS011;37777;53.066;21.638;2022-09-03T12:41:29;1.90;;;1.58;;
51692;SDS011;37777;53.066;21.638;2022-09-03T12:48:35;1.83;;;1.52;;
51692;SDS011;37777;53.066;21.638;2022-09-03T12:55:45;4.38;;;1.55;;
51692;SDS011;37777;53.066;21.638;2022-09-03T13:03:08;2.38;;;1.50;;
51692;SDS011;37777;53.066;21.638;2022-09-03T13:10:42;2.43;;;1.47;;
51692;SDS011;37777;53.066;21.638;2022-09-03T13:39:54;4.53;;;1.70;;
51692;SDS011;37777;53.066;21.638;2022-09-03T13:47:17;3.53;;;1.30;;
51692;SDS011;37777;53.066;21.638;2022-09-03T13:55:19;3.13;;;1.50;;
51692;SDS011;37777;53.066;21.638;2022-09-03T14:02:57;4.55;;;1.63;;
51692;SDS011;37777;53.066;21.638;2022-09-03T14:25:28;2.07;;;1.60;;
51692;SDS011;37777;53.066;21.638;2022-09-03T14:32:42;1.80;;;1.40;;
51692;SDS011;37777;53.066;21.638;2022-09-03T14:39:55;4.38;;;1.67;;
51692;SDS011;37777;53.066;21.638;2022-09-03T14:54:35;2.88;;;1.70;;
51692;SDS011;37777;53.066;21.638;2022-09-03T15:02:05;2.83;;;1.40;;
51692;SDS011;37777;53.066;21.638;2022-09-03T15:17:03;1.83;;;1.48;;
51692;SDS011;37777;53.066;21.638;2022-09-03T15:32:42;8.10;;;1.98;;
51692;SDS011;37777;53.066;21.638;2022-09-03T15:47:56;5.72;;;1.50;;
51692;SDS011;37777;53.066;21.638;2022-09-03T15:55:14;3.78;;;1.55;;
51692;SDS011;37777;53.066;21.638;2022-09-03T16:02:30;2.22;;;1.50;;
51692;SDS011;37777;53.066;21.638;2022-09-03T16:10:07;4.25;;;1.60;;
51692;SDS011;37777;53.066;21.638;2022-09-03T16:25:06;3.38;;;1.90;;
51692;SDS011;37777;53.066;21.638;2022-09-03T16:40:03;2.47;;;1.50;;
51692;SDS011;37777;53.066;21.638;2022-09-03T17:02:28;4.90;;;2.15;;
51692;SDS011;37777;53.066;21.638;2022-09-03T17:24:54;3.70;;;2.10;;
51692;SDS011;37777;53.066;21.638;2022-09-03T18:01:37;4.68;;;2.10;;
51692;SDS011;37777;53.066;21.638;2022-09-03T18:08:59;5.78;;;2.90;;
51692;SDS011;37777;53.066;21.638;2022-09-03T18:16:30;10.85;;;3.45;;
51692;SDS011;37777;53.066;21.638;2022-09-03T18:23:45;9.07;;;2.88;;
51692;SDS011;37777;53.066;21.638;2022-09-03T18:31:31;10.65;;;3.00;;
51692;SDS011;37777;53.066;21.638;2022-09-03T18:39:41;9.23;;;3.15;;
51692;SDS011;37777;53.066;21.638;2022-09-03T19:11:24;5.60;;;3.53;;
51692;SDS011;37777;53.066;21.638;2022-09-03T19:18:36;7.60;;;3.20;;
51692;SDS011;37777;53.066;21.638;2022-09-03T19:42:38;11.25;;;3.88;;
51692;SDS011;37777;53.066;21.638;2022-09-03T19:57:51;5.32;;;3.33;;
51692;SDS011;37777;53.066;21.638;2022-09-03T20:05:41;6.05;;;3.13;;
51692;SDS011;37777;53.066;21.638;2022-09-03T20:13:16;5.07;;;2.92;;
51692;SDS011;37777;53.066;21.638;2022-09-03T20:20:40;12.32;;;3.58;;
51692;SDS011;37777;53.066;21.638;2022-09-03T20:49:52;9.65;;;3.47;;
51692;SDS011;37777;53.066;21.638;2022-09-03T21:11:44;11.45;;;3.10;;
51692;SDS011;37777;53.066;21.638;2022-09-03T21:26:25;6.00;;;2.85;;
51692;SDS011;37777;53.066;21.638;2022-09-03T21:33:37;4.90;;;2.90;;
51692;SDS011;37777;53.066;21.638;2022-09-03T21:48:19;5.47;;;2.80;;
51692;SDS011;37777;53.066;21.638;2022-09-03T22:02:45;4.63;;;2.50;;
51692;SDS011;37777;53.066;21.638;2022-09-03T22:17:47;7.97;;;2.53;;
51692;SDS011;37777;53.066;21.638;2022-09-03T22:24:57;4.97;;;2.85;;
51692;SDS011;37777;53.066;21.638;2022-09-03T22:32:50;3.85;;;2.60;;
51692;SDS011;37777;53.066;21.638;2022-09-03T22:40:15;6.28;;;2.53;;
51692;SDS011;37777;53.066;21.638;2022-09-03T22:54:55;3.70;;;2.40;;
51692;SDS011;37777;53.066;21.638;2022-09-03T23:02:21;4.35;;;2.20;;
51692;SDS011;37777;53.066;21.638;2022-09-03T23:09:26;6.80;;;2.47;;
51692;SDS011;37777;53.066;21.638;2022-09-03T23:24:00;2.90;;;2.20;;
51692;SDS011;37777;53.066;21.638;2022-09-03T23:31:22;5.15;;;2.30;;
